sensor_id;sensor_type;location;lat;lon;timestamp;pressure;altitude;pressure_sealevel;temperature;humidity
73870;BME280;64924;42.140;24.762;2023-07-13T00:01:31;99657.31;;;30.80;39.49
73870;BME280;64924;42.140;24.762;2023-07-13T00:03:57;99644.25;;;30.67;39.28
73870;BME280;64924;42.140;24.762;2023-07-13T00:06:23;99650.66;;;30.84;39.34
73870;BME280;64924;42.140;24.762;2023-07-13T00:08:48;99639.16;;;30.77;39.61
73870;BME280;64924;42.140;24.762;2023-07-13T00:11:17;99665.88;;;30.92;39.60
73870;BME280;64924;42.140;24.762;2023-07-13T00:13:43;99663.06;;;30.92;39.21
73870;BME280;64924;42.140;24.762;2023-07-13T00:16:10;99640.13;;;30.81;39.47
73870;BME280;64924;42.140;24.762;2023-07-13T00:18:36;99665.88;;;30.92;39.46
73870;BME280;64924;42.140;24.762;2023-07-13T00:21:02;99664.72;;;30.93;39.56
73870;BME280;64924;42.140;24.762;2023-07-13T00:23:34;99656.97;;;30.81;39.78
73870;BME280;64924;42.140;24.762;2023-07-13T00:26:02;99654.16;;;30.64;40.25
73870;BME280;64924;42.140;24.762;2023-07-13T00:28:28;99658.91;;;30.55;40.05
73870;BME280;64924;42.140;24.762;2023-07-13T00:30:53;99645.19;;;30.53;40.14
73870;BME280;64924;42.140;24.762;2023-07-13T00:33:19;99635.16;;;30.44;40.40
73870;BME280;64924;42.140;24.762;2023-07-13T00:35:45;99641.91;;;30.51;39.98
73870;BME280;64924;42.140;24.762;2023-07-13T00:38:10;99644.38;;;30.53;40.23
73870;BME280;64924;42.140;24.762;2023-07-13T00:40:36;99639.78;;;30.57;40.19
73870;BME280;64924;42.140;24.762;2023-07-13T00:43:04;99609.56;;;30.45;39.66
73870;BME280;64924;42.140;24.762;2023-07-13T00:47:56;99633.69;;;30.64;39.51
73870;BME280;64924;42.140;24.762;2023-07-13T00:50:23;99637.16;;;30.61;39.70
73870;BME280;64924;42.140;24.762;2023-07-13T00:52:51;99641.59;;;30.62;39.76
73870;BME280;64924;42.140;24.762;2023-07-13T00:55:19;99640.78;;;30.61;39.70
73870;BME280;64924;42.140;24.762;2023-07-13T00:57:46;99645.56;;;30.61;39.34
73870;BME280;64924;42.140;24.762;2023-07-13T01:00:12;99631.53;;;30.61;39.29
73870;BME280;64924;42.140;24.762;2023-07-13T01:02:42;99583.66;;;30.31;39.16
73870;BME280;64924;42.140;24.762;2023-07-13T01:05:10;99637.59;;;30.54;39.41
73870;BME280;64924;42.140;24.762;2023-07-13T01:07:36;99633.97;;;30.53;39.22
73870;BME280;64924;42.140;24.762;2023-07-13T01:10:03;99614.84;;;30.38;38.95
73870;BME280;64924;42.140;24.762;2023-07-13T01:12:29;99625.09;;;30.43;38.92
73870;BME280;64924;42.140;24.762;2023-07-13T01:15:00;99623.91;;;30.35;39.00
73870;BME280;64924;42.140;24.762;2023-07-13T01:17:27;99581.50;;;30.11;39.28
73870;BME280;64924;42.140;24.762;2023-07-13T01:19:53;99614.34;;;30.27;39.11
73870;BME280;64924;42.140;24.762;2023-07-13T01:22:19;99629.53;;;30.35;39.03
73870;BME280;64924;42.140;24.762;2023-07-13T01:24:50;99623.91;;;30.35;38.45
73870;BME280;64924;42.140;24.762;2023-07-13T01:27:20;99628.22;;;30.41;38.80
73870;BME280;64924;42.140;24.762;2023-07-13T01:29:46;99625.06;;;30.34;38.96
73870;BME280;64924;42.140;24.762;2023-07-13T01:32:18;99628.03;;;30.29;38.66
73870;BME280;64924;42.140;24.762;2023-07-13T01:34:50;99623.38;;;30.16;38.70
73870;BME280;64924;42.140;24.762;2023-07-13T01:37:16;99635.22;;;30.13;39.10
73870;BME280;64924;42.140;24.762;2023-07-13T01:39:42;99631.63;;;30.21;38.93
73870;BME280;64924;42.140;24.762;2023-07-13T01:42:07;99632.13;;;30.23;38.79
73870;BME280;64924;42.140;24.762;2023-07-13T01:44:33;99629.00;;;30.24;38.60
73870;BME280;64924;42.140;24.762;2023-07-13T01:47:01;99629.66;;;30.21;38.75
73870;BME280;64924;42.140;24.762;2023-07-13T01:49:26;99594.34;;;30.03;38.52
73870;BME280;64924;42.140;24.762;2023-07-13T01:51:52;99615.28;;;30.14;38.92
73870;BME280;64924;42.140;24.762;2023-07-13T01:54:17;99630.13;;;30.15;38.65
73870;BME280;64924;42.140;24.762;2023-07-13T01:56:42;99630.97;;;30.15;38.78
73870;BME280;64924;42.140;24.762;2023-07-13T01:59:09;99639.22;;;30.20;39.00
73870;BME280;64924;42.140;24.762;2023-07-13T02:01:34;99633.41;;;30.00;39.02
73870;BME280;64924;42.140;24.762;2023-07-13T02:04:00;99643.41;;;29.92;39.13
73870;BME280;64924;42.140;24.762;2023-07-13T02:06:26;99635.47;;;29.85;39.53
73870;BME280;64924;42.140;24.762;2023-07-13T02:08:51;99643.72;;;29.90;39.64
73870;BME280;64924;42.140;24.762;2023-07-13T02:11:17;99638.94;;;29.91;39.44
73870;BME280;64924;42.140;24.762;2023-07-13T02:13:43;99648.97;;;29.83;39.83
73870;BME280;64924;42.140;24.762;2023-07-13T02:16:08;99653.09;;;29.86;39.37
73870;BME280;64924;42.140;24.762;2023-07-13T02:18:34;99651.94;;;29.87;39.42
73870;BME280;64924;42.140;24.762;2023-07-13T02:21:00;99654.22;;;29.76;39.92
73870;BME280;64924;42.140;24.762;2023-07-13T02:23:25;99653.56;;;29.79;39.95
73870;BME280;64924;42.140;24.762;2023-07-13T02:25:56;99657.56;;;29.87;39.47
73870;BME280;64924;42.140;24.762;2023-07-13T02:28:21;99658.81;;;29.72;39.90
73870;BME280;64924;42.140;24.762;2023-07-13T02:30:47;99659.28;;;29.66;40.36
73870;BME280;64924;42.140;24.762;2023-07-13T02:33:12;99661.78;;;29.67;39.88
73870;BME280;64924;42.140;24.762;2023-07-13T02:35:38;99670.56;;;29.52;40.39
73870;BME280;64924;42.140;24.762;2023-07-13T02:38:04;99668.94;;;29.51;40.71
73870;BME280;64924;42.140;24.762;2023-07-13T02:40:29;99626.31;;;29.32;40.56
73870;BME280;64924;42.140;24.762;2023-07-13T02:42:58;99659.09;;;29.40;40.98
73870;BME280;64924;42.140;24.762;2023-07-13T02:45:23;99669.19;;;29.41;40.99
73870;BME280;64924;42.140;24.762;2023-07-13T02:47:49;99659.75;;;29.37;40.50
73870;BME280;64924;42.140;24.762;2023-07-13T02:50:15;99637.00;;;29.30;40.50
73870;BME280;64924;42.140;24.762;2023-07-13T02:52:40;99657.09;;;29.32;40.54
73870;BME280;64924;42.140;24.762;2023-07-13T02:55:06;99671.94;;;29.32;40.54
73870;BME280;64924;42.140;24.762;2023-07-13T02:57:31;99676.31;;;29.24;40.97
73870;BME280;64924;42.140;24.762;2023-07-13T02:59:58;99678.81;;;29.26;40.89
73870;BME280;64924;42.140;24.762;2023-07-13T03:02:24;99678.41;;;29.19;40.66
73870;BME280;64924;42.140;24.762;2023-07-13T03:04:50;99665.88;;;29.16;40.91
73870;BME280;64924;42.140;24.762;2023-07-13T03:07:15;99674.28;;;29.16;41.19
73870;BME280;64924;42.140;24.762;2023-07-13T03:09:41;99642.22;;;29.00;41.18
73870;BME280;64924;42.140;24.762;2023-07-13T03:12:07;99676.13;;;29.21;40.59
73870;BME280;64924;42.140;24.762;2023-07-13T03:14:32;99675.03;;;29.31;40.68
73870;BME280;64924;42.140;24.762;2023-07-13T03:16:58;99633.63;;;29.19;40.36
73870;BME280;64924;42.140;24.762;2023-07-13T03:19:23;99675.09;;;29.62;39.96
73870;BME280;64924;42.140;24.762;2023-07-13T03:21:49;99677.75;;;29.75;39.36
73870;BME280;64924;42.140;24.762;2023-07-13T03:24:14;99674.72;;;29.94;38.82
73870;BME280;64924;42.140;24.762;2023-07-13T03:26:40;99655.19;;;30.03;38.56
73870;BME280;64924;42.140;24.762;2023-07-13T03:29:06;99667.28;;;30.29;38.03
73870;BME280;64924;42.140;24.762;2023-07-13T03:31:34;99651.13;;;30.52;37.82
73870;BME280;64924;42.140;24.762;2023-07-13T03:34:00;99665.22;;;30.78;37.18
73870;BME280;64924;42.140;24.762;2023-07-13T03:36:28;99653.63;;;31.22;36.48
73870;BME280;64924;42.140;24.762;2023-07-13T03:39:00;99652.69;;;31.65;35.22
73870;BME280;64924;42.140;24.762;2023-07-13T03:41:26;99652.72;;;32.03;34.62
73870;BME280;64924;42.140;24.762;2023-07-13T03:43:52;99662.75;;;32.42;34.16
73870;BME280;64924;42.140;24.762;2023-07-13T03:46:19;99623.75;;;32.62;32.99
73870;BME280;64924;42.140;24.762;2023-07-13T03:48:46;99662.75;;;33.26;32.41
73870;BME280;64924;42.140;24.762;2023-07-13T03:51:13;99652.22;;;33.80;31.12
73870;BME280;64924;42.140;24.762;2023-07-13T03:53:41;99650.47;;;34.24;30.33
73870;BME280;64924;42.140;24.762;2023-07-13T03:56:08;99657.66;;;34.46;30.39
73870;BME280;64924;42.140;24.762;2023-07-13T03:58:36;99621.00;;;34.34;29.82
73870;BME280;64924;42.140;24.762;2023-07-13T04:01:04;99666.06;;;34.58;29.89
73870;BME280;64924;42.140;24.762;2023-07-13T04:03:31;99672.44;;;34.55;29.95
73870;BME280;64924;42.140;24.762;2023-07-13T04:05:59;99660.38;;;34.42;29.76
73870;BME280;64924;42.140;24.762;2023-07-13T04:08:36;99662.69;;;34.28;30.41
73870;BME280;64924;42.140;24.762;2023-07-13T04:11:02;99665.53;;;34.16;30.46
73870;BME280;64924;42.140;24.762;2023-07-13T04:13:29;99663.78;;;34.11;30.44
73870;BME280;64924;42.140;24.762;2023-07-13T04:15:55;99668.91;;;34.21;30.08
73870;BME280;64924;42.140;24.762;2023-07-13T04:18:21;99676.13;;;34.31;30.52
73870;BME280;64924;42.140;24.762;2023-07-13T04:20:47;99664.34;;;34.29;30.27
73870;BME280;64924;42.140;24.762;2023-07-13T04:23:13;99658.09;;;34.24;30.35
73870;BME280;64924;42.140;24.762;2023-07-13T04:25:42;99669.31;;;34.32;30.53
73870;BME280;64924;42.140;24.762;2023-07-13T04:28:08;99681.25;;;34.29;30.84
73870;BME280;64924;42.140;24.762;2023-07-13T04:30:34;99677.16;;;34.27;30.86
73870;BME280;64924;42.140;24.762;2023-07-13T04:32:59;99682.13;;;34.30;30.64
73870;BME280;64924;42.140;24.762;2023-07-13T04:35:25;99674.72;;;34.37;30.81
73870;BME280;64924;42.140;24.762;2023-07-13T04:37:51;99586.44;;;33.64;30.91
73870;BME280;64924;42.140;24.762;2023-07-13T04:40:17;99673.66;;;34.30;30.54
73870;BME280;64924;42.140;24.762;2023-07-13T04:42:44;99671.19;;;34.40;30.55
73870;BME280;64924;42.140;24.762;2023-07-13T04:45:10;99682.88;;;34.67;30.53
73870;BME280;64924;42.140;24.762;2023-07-13T04:47:36;99679.34;;;34.70;30.33
73870;BME280;64924;42.140;24.762;2023-07-13T04:50:02;99691.69;;;34.77;30.25
73870;BME280;64924;42.140;24.762;2023-07-13T04:52:28;99651.03;;;34.54;30.72
73870;BME280;64924;42.140;24.762;2023-07-13T04:54:53;99692.06;;;34.88;30.13
73870;BME280;64924;42.140;24.762;2023-07-13T04:57:19;99689.16;;;35.00;30.45
73870;BME280;64924;42.140;24.762;2023-07-13T04:59:44;99683.59;;;35.16;29.99
73870;BME280;64924;42.140;24.762;2023-07-13T05:02:10;99692.59;;;35.34;29.76
73870;BME280;64924;42.140;24.762;2023-07-13T05:04:35;99656.38;;;35.24;29.09
73870;BME280;64924;42.140;24.762;2023-07-13T05:07:01;99684.25;;;35.53;29.04
73870;BME280;64924;42.140;24.762;2023-07-13T05:09:26;99680.97;;;35.51;28.49
73870;BME280;64924;42.140;24.762;2023-07-13T05:11:52;99693.28;;;35.59;28.81
73870;BME280;64924;42.140;24.762;2023-07-13T05:14:17;99698.09;;;35.42;28.38
73870;BME280;64924;42.140;24.762;2023-07-13T05:16:43;99689.03;;;35.37;28.91
73870;BME280;64924;42.140;24.762;2023-07-13T05:19:09;99661.41;;;35.30;28.85
73870;BME280;64924;42.140;24.762;2023-07-13T05:21:35;99688.53;;;35.47;28.69
73870;BME280;64924;42.140;24.762;2023-07-13T05:24:00;99695.91;;;35.67;28.78
73870;BME280;64924;42.140;24.762;2023-07-13T05:26:26;99697.06;;;35.78;28.52
73870;BME280;64924;42.140;24.762;2023-07-13T05:28:52;99682.75;;;35.87;28.23
73870;BME280;64924;42.140;24.762;2023-07-13T05:31:17;99686.69;;;35.98;28.18
73870;BME280;64924;42.140;24.762;2023-07-13T05:33:43;99695.59;;;36.16;27.79
73870;BME280;64924;42.140;24.762;2023-07-13T05:36:08;99696.91;;;36.34;27.78
73870;BME280;64924;42.140;24.762;2023-07-13T05:38:34;99691.19;;;36.66;26.83
73870;BME280;64924;42.140;24.762;2023-07-13T05:41:00;99695.69;;;36.86;26.93
73870;BME280;64924;42.140;24.762;2023-07-13T05:43:26;99702.50;;;37.01;26.32
73870;BME280;64924;42.140;24.762;2023-07-13T05:45:56;99695.25;;;37.03;26.57
73870;BME280;64924;42.140;24.762;2023-07-13T05:48:22;99694.94;;;36.89;26.69
73870;BME280;64924;42.140;24.762;2023-07-13T05:50:48;99690.41;;;37.04;26.46
73870;BME280;64924;42.140;24.762;2023-07-13T05:53:14;99706.41;;;37.31;26.17
73870;BME280;64924;42.140;24.762;2023-07-13T05:55:44;99656.78;;;37.41;26.03
73870;BME280;64924;42.140;24.762;2023-07-13T05:58:13;99691.78;;;37.94;25.74
73870;BME280;64924;42.140;24.762;2023-07-13T06:00:39;99678.56;;;38.51;24.62
73870;BME280;64924;42.140;24.762;2023-07-13T06:03:06;99683.28;;;39.26;23.78
73870;BME280;64924;42.140;24.762;2023-07-13T06:05:32;99653.44;;;39.87;22.81
73870;BME280;64924;42.140;24.762;2023-07-13T06:07:59;99687.53;;;40.76;22.06
73870;BME280;64924;42.140;24.762;2023-07-13T06:10:24;99690.66;;;41.36;21.27
73870;BME280;64924;42.140;24.762;2023-07-13T06:12:50;99692.03;;;41.88;20.52
73870;BME280;64924;42.140;24.762;2023-07-13T06:15:15;99666.75;;;42.19;20.53
73870;BME280;64924;42.140;24.762;2023-07-13T06:17:41;99694.88;;;42.63;20.32
73870;BME280;64924;42.140;24.762;2023-07-13T06:20:07;99694.41;;;43.00;19.95
73870;BME280;64924;42.140;24.762;2023-07-13T06:22:32;99691.38;;;43.43;18.75
73870;BME280;64924;42.140;24.762;2023-07-13T06:24:58;99680.00;;;43.91;18.57
73870;BME280;64924;42.140;24.762;2023-07-13T06:27:23;99686.19;;;44.38;17.93
73870;BME280;64924;42.140;24.762;2023-07-13T06:29:49;99684.06;;;44.86;17.52
73870;BME280;64924;42.140;24.762;2023-07-13T06:32:14;99685.94;;;45.34;16.76
73870;BME280;64924;42.140;24.762;2023-07-13T06:34:40;99687.22;;;45.87;16.47
73870;BME280;64924;42.140;24.762;2023-07-13T06:37:06;99638.81;;;45.62;16.38
73870;BME280;64924;42.140;24.762;2023-07-13T06:39:32;99692.13;;;46.13;16.07
73870;BME280;64924;42.140;24.762;2023-07-13T06:41:57;99668.75;;;46.38;15.75
73870;BME280;64924;42.140;24.762;2023-07-13T06:44:23;99671.09;;;46.86;15.05
73870;BME280;64924;42.140;24.762;2023-07-13T06:46:48;99662.34;;;47.13;15.05
73870;BME280;64924;42.140;24.762;2023-07-13T06:49:14;99663.56;;;47.32;14.95
73870;BME280;64924;42.140;24.762;2023-07-13T06:51:39;99678.63;;;47.40;14.88
73870;BME280;64924;42.140;24.762;2023-07-13T06:54:05;99622.59;;;47.44;14.46
73870;BME280;64924;42.140;24.762;2023-07-13T06:56:30;99656.56;;;48.02;14.34
73870;BME280;64924;42.140;24.762;2023-07-13T06:58:55;99664.22;;;48.41;13.79
73870;BME280;64924;42.140;24.762;2023-07-13T07:01:21;99671.66;;;49.00;13.27
73870;BME280;64924;42.140;24.762;2023-07-13T07:03:46;99675.22;;;49.45;13.33
73870;BME280;64924;42.140;24.762;2023-07-13T07:06:21;99669.03;;;49.18;13.04
73870;BME280;64924;42.140;24.762;2023-07-13T07:08:49;99670.97;;;48.96;13.00
73870;BME280;64924;42.140;24.762;2023-07-13T07:11:18;99676.13;;;48.88;13.20
73870;BME280;64924;42.140;24.762;2023-07-13T07:13:44;99671.69;;;48.83;12.91
73870;BME280;64924;42.140;24.762;2023-07-13T07:16:09;99674.91;;;49.14;13.10
73870;BME280;64924;42.140;24.762;2023-07-13T07:18:35;99678.56;;;49.44;12.89
73870;BME280;64924;42.140;24.762;2023-07-13T07:21:00;99676.78;;;49.63;13.16
73870;BME280;64924;42.140;24.762;2023-07-13T07:23:26;99677.91;;;49.91;12.73
73870;BME280;64924;42.140;24.762;2023-07-13T07:25:51;99670.41;;;49.93;12.75
73870;BME280;64924;42.140;24.762;2023-07-13T07:28:17;99672.22;;;48.95;13.55
73870;BME280;64924;42.140;24.762;2023-07-13T07:30:47;99630.78;;;48.72;13.40
73870;BME280;64924;42.140;24.762;2023-07-13T07:33:13;99666.72;;;49.13;12.93
73870;BME280;64924;42.140;24.762;2023-07-13T07:35:39;99665.88;;;48.71;13.42
73870;BME280;64924;42.140;24.762;2023-07-13T07:38:04;99668.91;;;49.09;13.42
73870;BME280;64924;42.140;24.762;2023-07-13T07:40:30;99663.31;;;49.43;13.17
73870;BME280;64924;42.140;24.762;2023-07-13T07:42:56;99653.63;;;49.37;13.28
73870;BME280;64924;42.140;24.762;2023-07-13T07:45:22;99658.63;;;49.08;13.32
73870;BME280;64924;42.140;24.762;2023-07-13T07:47:47;99658.94;;;49.26;13.15
73870;BME280;64924;42.140;24.762;2023-07-13T07:50:13;99649.81;;;48.70;14.00
73870;BME280;64924;42.140;24.762;2023-07-13T07:52:39;99663.00;;;48.26;13.57
73870;BME280;64924;42.140;24.762;2023-07-13T07:55:06;99658.09;;;48.39;13.59
73870;BME280;64924;42.140;24.762;2023-07-13T07:57:32;99661.63;;;48.75;13.57
73870;BME280;64924;42.140;24.762;2023-07-13T07:59:57;99654.94;;;49.20;13.39
73870;BME280;64924;42.140;24.762;2023-07-13T08:02:24;99651.88;;;49.27;13.50
73870;BME280;64924;42.140;24.762;2023-07-13T08:04:50;99628.09;;;49.48;12.73
73870;BME280;64924;42.140;24.762;2023-07-13T08:07:15;99646.34;;;49.45;12.85
73870;BME280;64924;42.140;24.762;2023-07-13T08:09:41;99643.97;;;49.15;13.41
73870;BME280;64924;42.140;24.762;2023-07-13T08:12:07;99644.75;;;48.90;13.08
73870;BME280;64924;42.140;24.762;2023-07-13T08:14:32;99638.97;;;48.61;13.26
73870;BME280;64924;42.140;24.762;2023-07-13T08:16:58;99586.97;;;48.03;13.58
73870;BME280;64924;42.140;24.762;2023-07-13T08:19:23;99630.78;;;47.62;13.79
73870;BME280;64924;42.140;24.762;2023-07-13T08:21:49;99630.25;;;47.67;13.82
73870;BME280;64924;42.140;24.762;2023-07-13T08:24:15;99639.72;;;48.00;13.96
73870;BME280;64924;42.140;24.762;2023-07-13T08:26:40;99630.84;;;48.27;13.93
73870;BME280;64924;42.140;24.762;2023-07-13T08:29:06;99625.06;;;48.27;13.62
73870;BME280;64924;42.140;24.762;2023-07-13T08:31:31;99630.66;;;48.63;13.82
73870;BME280;64924;42.140;24.762;2023-07-13T08:33:57;99632.75;;;48.75;13.40
73870;BME280;64924;42.140;24.762;2023-07-13T08:36:22;99630.50;;;48.83;13.25
73870;BME280;64924;42.140;24.762;2023-07-13T08:38:48;99630.94;;;48.81;12.77
73870;BME280;64924;42.140;24.762;2023-07-13T08:41:17;99623.72;;;49.02;12.96
73870;BME280;64924;42.140;24.762;2023-07-13T08:43:47;99620.38;;;49.04;12.87
73870;BME280;64924;42.140;24.762;2023-07-13T08:48:52;99602.00;;;48.27;12.93
73870;BME280;64924;42.140;24.762;2023-07-13T08:54:05;99606.59;;;48.25;13.25
73870;BME280;64924;42.140;24.762;2023-07-13T08:56:35;99583.38;;;47.50;13.92
73870;BME280;64924;42.140;24.762;2023-07-13T08:59:13;99601.47;;;47.15;14.19
73870;BME280;64924;42.140;24.762;2023-07-13T09:04:26;99572.25;;;46.57;14.44
73870;BME280;64924;42.140;24.762;2023-07-13T09:17:59;99588.47;;;43.80;17.04
73870;BME280;64924;42.140;24.762;2023-07-13T09:20:49;99587.00;;;43.58;17.42
73870;BME280;64924;42.140;24.762;2023-07-13T09:23:19;99583.53;;;43.22;17.00
73870;BME280;64924;42.140;24.762;2023-07-13T09:25:48;99552.38;;;42.68;18.19
73870;BME280;64924;42.140;24.762;2023-07-13T09:28:23;99581.72;;;42.72;17.35
73870;BME280;64924;42.140;24.762;2023-07-13T09:30:56;99574.44;;;42.68;17.74
73870;BME280;64924;42.140;24.762;2023-07-13T09:33:23;99564.97;;;42.85;17.58
73870;BME280;64924;42.140;24.762;2023-07-13T09:35:49;99559.66;;;42.73;17.10
73870;BME280;64924;42.140;24.762;2023-07-13T09:38:19;99563.75;;;42.76;17.58
73870;BME280;64924;42.140;24.762;2023-07-13T09:41:23;99549.53;;;42.61;16.94
73870;BME280;64924;42.140;24.762;2023-07-13T09:44:10;99552.47;;;42.44;17.41
73870;BME280;64924;42.140;24.762;2023-07-13T09:46:37;99538.16;;;42.36;17.94
73870;BME280;64924;42.140;24.762;2023-07-13T09:49:03;99540.19;;;42.39;18.10
73870;BME280;64924;42.140;24.762;2023-07-13T09:51:28;99528.38;;;42.37;18.13
73870;BME280;64924;42.140;24.762;2023-07-13T09:53:54;99488.94;;;41.72;18.40
73870;BME280;64924;42.140;24.762;2023-07-13T09:56:26;99511.38;;;41.73;18.42
73870;BME280;64924;42.140;24.762;2023-07-13T09:58:52;99515.44;;;41.37;18.54
73870;BME280;64924;42.140;24.762;2023-07-13T10:01:32;99516.25;;;41.30;19.04
73870;BME280;64924;42.140;24.762;2023-07-13T10:03:58;99524.00;;;41.37;19.07
73870;BME280;64924;42.140;24.762;2023-07-13T10:06:24;99513.00;;;41.32;18.47
73870;BME280;64924;42.140;24.762;2023-07-13T10:08:52;99495.47;;;41.51;18.56
73870;BME280;64924;42.140;24.762;2023-07-13T10:11:27;99511.38;;;41.45;19.86
73870;BME280;64924;42.140;24.762;2023-07-13T10:14:00;99507.66;;;41.05;19.63
73870;BME280;64924;42.140;24.762;2023-07-13T10:16:28;99499.44;;;40.76;19.66
73870;BME280;64924;42.140;24.762;2023-07-13T10:19:00;99506.28;;;40.64;20.14
73870;BME280;64924;42.140;24.762;2023-07-13T10:21:52;99497.34;;;40.65;20.21
73870;BME280;64924;42.140;24.762;2023-07-13T10:26:50;99459.75;;;40.31;20.13
73870;BME280;64924;42.140;24.762;2023-07-13T10:29:18;99498.09;;;40.48;19.73
73870;BME280;64924;42.140;24.762;2023-07-13T10:31:45;99477.38;;;40.62;20.03
73870;BME280;64924;42.140;24.762;2023-07-13T10:34:11;99489.28;;;40.92;19.10
73870;BME280;64924;42.140;24.762;2023-07-13T10:39:15;99447.75;;;40.95;17.00
73870;BME280;64924;42.140;24.762;2023-07-13T10:41:42;99471.81;;;41.22;16.16
73870;BME280;64924;42.140;24.762;2023-07-13T10:44:18;99467.34;;;41.35;16.54
73870;BME280;64924;42.140;24.762;2023-07-13T10:46:46;99473.88;;;41.29;16.58
73870;BME280;64924;42.140;24.762;2023-07-13T10:49:12;99469.41;;;41.53;16.38
73870;BME280;64924;42.140;24.762;2023-07-13T10:51:38;99455.94;;;41.67;16.14
73870;BME280;64924;42.140;24.762;2023-07-13T10:54:15;99466.91;;;41.87;16.58
73870;BME280;64924;42.140;24.762;2023-07-13T10:56:45;99464.00;;;42.08;16.35
73870;BME280;64924;42.140;24.762;2023-07-13T10:59:15;99464.72;;;42.33;15.58
73870;BME280;64924;42.140;24.762;2023-07-13T11:04:40;99447.88;;;42.64;15.43
73870;BME280;64924;42.140;24.762;2023-07-13T11:07:29;99436.53;;;42.43;15.02
73870;BME280;64924;42.140;24.762;2023-07-13T11:09:59;99446.84;;;42.15;15.80
73870;BME280;64924;42.140;24.762;2023-07-13T11:17:53;99437.75;;;42.49;14.95
73870;BME280;64924;42.140;24.762;2023-07-13T11:20:35;99428.38;;;42.34;15.55
73870;BME280;64924;42.140;24.762;2023-07-13T11:25:38;99445.50;;;42.37;15.34
73870;BME280;64924;42.140;24.762;2023-07-13T11:30:48;99431.22;;;42.37;15.17
73870;BME280;64924;42.140;24.762;2023-07-13T11:36:16;99425.84;;;42.57;14.79
73870;BME280;64924;42.140;24.762;2023-07-13T11:41:35;99388.47;;;42.27;14.49
73870;BME280;64924;42.140;24.762;2023-07-13T11:44:22;99428.88;;;42.22;14.50
73870;BME280;64924;42.140;24.762;2023-07-13T11:46:54;99424.00;;;42.15;14.59
73870;BME280;64924;42.140;24.762;2023-07-13T11:49:22;99422.78;;;42.13;14.52
73870;BME280;64924;42.140;24.762;2023-07-13T11:51:48;99413.81;;;42.14;14.95
73870;BME280;64924;42.140;24.762;2023-07-13T11:54:42;99414.53;;;42.32;14.75
73870;BME280;64924;42.140;24.762;2023-07-13T11:57:28;99410.63;;;42.71;14.68
73870;BME280;64924;42.140;24.762;2023-07-13T11:59:56;99400.13;;;42.57;14.28
73870;BME280;64924;42.140;24.762;2023-07-13T12:02:32;99375.31;;;42.40;14.50
73870;BME280;64924;42.140;24.762;2023-07-13T12:04:59;99396.88;;;42.59;14.90
73870;BME280;64924;42.140;24.762;2023-07-13T12:07:28;99395.59;;;42.63;14.67
73870;BME280;64924;42.140;24.762;2023-07-13T12:10:03;99392.44;;;42.47;14.20
73870;BME280;64924;42.140;24.762;2023-07-13T12:12:36;99357.53;;;42.11;14.99
73870;BME280;64924;42.140;24.762;2023-07-13T12:15:08;99368.22;;;41.86;14.71
73870;BME280;64924;42.140;24.762;2023-07-13T12:17:34;99375.59;;;41.80;15.18
73870;BME280;64924;42.140;24.762;2023-07-13T12:20:03;99344.66;;;41.60;14.92
73870;BME280;64924;42.140;24.762;2023-07-13T12:22:32;99372.75;;;41.72;15.38
73870;BME280;64924;42.140;24.762;2023-07-13T12:24:59;99373.19;;;41.60;18.06
73870;BME280;64924;42.140;24.762;2023-07-13T12:27:27;99364.28;;;41.30;17.97
73870;BME280;64924;42.140;24.762;2023-07-13T12:29:59;99364.28;;;41.30;17.43
73870;BME280;64924;42.140;24.762;2023-07-13T12:32:26;99366.31;;;41.33;17.49
73870;BME280;64924;42.140;24.762;2023-07-13T12:35:15;99361.81;;;41.35;17.62
73870;BME280;64924;42.140;24.762;2023-07-13T12:37:45;99366.28;;;41.54;17.81
73870;BME280;64924;42.140;24.762;2023-07-13T12:40:19;99359.75;;;41.54;17.75
73870;BME280;64924;42.140;24.762;2023-07-13T12:42:47;99344.69;;;41.39;17.37
73870;BME280;64924;42.140;24.762;2023-07-13T12:45:17;99351.22;;;41.36;17.82
73870;BME280;64924;42.140;24.762;2023-07-13T12:47:47;99342.72;;;41.18;17.12
73870;BME280;64924;42.140;24.762;2023-07-13T12:50:14;99336.19;;;41.14;17.29
73870;BME280;64924;42.140;24.762;2023-07-13T12:52:42;99307.69;;;40.93;17.38
73870;BME280;64924;42.140;24.762;2023-07-13T12:55:15;99334.13;;;41.25;16.74
73870;BME280;64924;42.140;24.762;2023-07-13T12:57:54;99336.56;;;41.34;16.70
73870;BME280;64924;42.140;24.762;2023-07-13T13:02:55;99336.53;;;41.45;16.43
73870;BME280;64924;42.140;24.762;2023-07-13T13:05:21;99314.94;;;41.40;17.07
73870;BME280;64924;42.140;24.762;2023-07-13T13:07:49;99293.75;;;41.41;16.54
73870;BME280;64924;42.140;24.762;2023-07-13T13:10:15;99314.06;;;41.64;16.25
73870;BME280;64924;42.140;24.762;2023-07-13T13:12:41;99318.53;;;41.72;16.16
73870;BME280;64924;42.140;24.762;2023-07-13T13:15:10;99309.50;;;41.85;16.25
73870;BME280;64924;42.140;24.762;2023-07-13T13:17:37;99323.34;;;41.93;16.00
73870;BME280;64924;42.140;24.762;2023-07-13T13:20:32;99324.69;;;41.57;16.24
73870;BME280;64924;42.140;24.762;2023-07-13T13:22:58;99313.75;;;41.34;16.20
73870;BME280;64924;42.140;24.762;2023-07-13T13:25:23;99314.59;;;41.20;16.62
73870;BME280;64924;42.140;24.762;2023-07-13T13:27:49;99308.88;;;41.17;16.50
73870;BME280;64924;42.140;24.762;2023-07-13T13:30:17;99319.06;;;41.07;16.53
73870;BME280;64924;42.140;24.762;2023-07-13T13:32:44;99268.59;;;40.68;17.02
73870;BME280;64924;42.140;24.762;2023-07-13T13:35:14;99300.75;;;40.87;16.90
73870;BME280;64924;42.140;24.762;2023-07-13T13:37:40;99275.50;;;40.53;16.86
73870;BME280;64924;42.140;24.762;2023-07-13T13:40:21;99290.56;;;40.64;17.00
73870;BME280;64924;42.140;24.762;2023-07-13T13:42:48;99283.66;;;40.62;17.39